sensor_id;sensor_type;location;lat;lon;timestamp;temperature;humidity
19359;DHT22;9815;52.334;20.890;2023-12-14T00:00:02;3.10;99.90
19359;DHT22;9815;52.334;20.890;2023-12-14T00:02:32;3.00;99.90
19359;DHT22;9815;52.334;20.890;2023-12-14T00:05:01;3.00;99.90
19359;DHT22;9815;52.334;20.890;2023-12-14T00:07:30;3.00;99.90
19359;DHT22;9815;52.334;20.890;2023-12-14T00:09:58;2.90;99.90
19359;DHT22;9815;52.334;20.890;2023-12-14T00:12:28;3.00;99.90
19359;DHT22;9815;52.334;20.890;2023-12-14T00:14:58;3.00;99.90
19359;DHT22;9815;52.334;20.890;2023-12-14T00:17:26;2.90;99.90
19359;DHT22;9815;52.334;20.890;2023-12-14T00:19:56;2.90;99.90
19359;DHT22;9815;52.334;20.890;2023-12-14T00:22:24;2.90;99.90
19359;DHT22;9815;52.334;20.890;2023-12-14T00:24:53;3.00;99.90
19359;DHT22;9815;52.334;20.890;2023-12-14T00:27:21;2.90;99.90
19359;DHT22;9815;52.334;20.890;2023-12-14T00:29:51;2.90;99.90
19359;DHT22;9815;52.334;20.890;2023-12-14T00:32:20;3.00;99.90
19359;DHT22;9815;52.334;20.890;2023-12-14T00:34:48;2.90;99.90
19359;DHT22;9815;52.334;20.890;2023-12-14T00:37:17;2.90;99.90
19359;DHT22;9815;52.334;20.890;2023-12-14T00:39:45;2.90;99.90
19359;DHT22;9815;52.334;20.890;2023-12-14T00:42:14;2.90;99.90
19359;DHT22;9815;52.334;20.890;2023-12-14T00:44:42;2.90;99.90
19359;DHT22;9815;52.334;20.890;2023-12-14T00:47:12;2.90;99.90
19359;DHT22;9815;52.334;20.890;2023-12-14T00:49:41;2.90;99.90
19359;DHT22;9815;52.334;20.890;2023-12-14T00:52:09;2.90;99.90
19359;DHT22;9815;52.334;20.890;2023-12-14T00:54:38;2.80;99.90
19359;DHT22;9815;52.334;20.890;2023-12-14T00:57:06;2.90;99.90
19359;DHT22;9815;52.334;20.890;2023-12-14T00:59:34;2.90;99.90
19359;DHT22;9815;52.334;20.890;2023-12-14T01:02:03;2.80;99.90
19359;DHT22;9815;52.334;20.890;2023-12-14T01:04:33;2.80;99.90
19359;DHT22;9815;52.334;20.890;2023-12-14T01:07:03;2.80;99.90
19359;DHT22;9815;52.334;20.890;2023-12-14T01:09:31;2.80;99.90
19359;DHT22;9815;52.334;20.890;2023-12-14T01:12:00;2.80;99.90
19359;DHT22;9815;52.334;20.890;2023-12-14T01:14:28;2.80;99.90
19359;DHT22;9815;52.334;20.890;2023-12-14T01:16:57;2.90;99.90
19359;DHT22;9815;52.334;20.890;2023-12-14T01:19:26;2.80;99.90
19359;DHT22;9815;52.334;20.890;2023-12-14T01:21:56;2.90;99.90
19359;DHT22;9815;52.334;20.890;2023-12-14T01:24:24;2.80;99.90
19359;DHT22;9815;52.334;20.890;2023-12-14T01:26:53;2.80;99.90
19359;DHT22;9815;52.334;20.890;2023-12-14T01:29:21;2.90;99.90
19359;DHT22;9815;52.334;20.890;2023-12-14T01:31:49;2.80;99.90
19359;DHT22;9815;52.334;20.890;2023-12-14T01:34:18;2.80;99.90
19359;DHT22;9815;52.334;20.890;2023-12-14T01:36:46;2.70;99.90
19359;DHT22;9815;52.334;20.890;2023-12-14T01:39:16;2.70;99.90
19359;DHT22;9815;52.334;20.890;2023-12-14T01:41:45;2.80;99.90
19359;DHT22;9815;52.334;20.890;2023-12-14T01:44:14;2.80;99.90
19359;DHT22;9815;52.334;20.890;2023-12-14T01:46:42;2.80;99.90
19359;DHT22;9815;52.334;20.890;2023-12-14T01:49:11;2.80;99.90
19359;DHT22;9815;52.334;20.890;2023-12-14T01:51:40;2.70;99.90
19359;DHT22;9815;52.334;20.890;2023-12-14T01:54:08;2.80;99.90
19359;DHT22;9815;52.334;20.890;2023-12-14T01:56:38;2.80;99.90
19359;DHT22;9815;52.334;20.890;2023-12-14T01:59:07;2.70;99.90
19359;DHT22;9815;52.334;20.890;2023-12-14T02:01:38;2.80;99.90
19359;DHT22;9815;52.334;20.890;2023-12-14T02:04:08;2.80;99.90
19359;DHT22;9815;52.334;20.890;2023-12-14T02:06:38;2.80;99.90
19359;DHT22;9815;52.334;20.890;2023-12-14T02:09:07;2.80;99.90
19359;DHT22;9815;52.334;20.890;2023-12-14T02:11:35;2.80;99.90
19359;DHT22;9815;52.334;20.890;2023-12-14T02:14:08;2.80;99.90
19359;DHT22;9815;52.334;20.890;2023-12-14T02:16:37;2.70;99.90
19359;DHT22;9815;52.334;20.890;2023-12-14T02:19:06;2.70;99.90
19359;DHT22;9815;52.334;20.890;2023-12-14T02:21:35;2.70;99.90
19359;DHT22;9815;52.334;20.890;2023-12-14T02:24:06;2.70;99.90
19359;DHT22;9815;52.334;20.890;2023-12-14T02:26:34;2.70;99.90
19359;DHT22;9815;52.334;20.890;2023-12-14T02:29:03;2.70;99.90
19359;DHT22;9815;52.334;20.890;2023-12-14T02:31:31;2.70;99.90
19359;DHT22;9815;52.334;20.890;2023-12-14T02:34:00;2.70;99.90
19359;DHT22;9815;52.334;20.890;2023-12-14T02:36:28;2.60;99.90
19359;DHT22;9815;52.334;20.890;2023-12-14T02:38:57;2.70;99.90
19359;DHT22;9815;52.334;20.890;2023-12-14T02:41:27;2.60;99.90
19359;DHT22;9815;52.334;20.890;2023-12-14T02:43:55;2.70;99.90
19359;DHT22;9815;52.334;20.890;2023-12-14T02:46:24;2.70;99.90
19359;DHT22;9815;52.334;20.890;2023-12-14T02:48:52;2.60;99.90
19359;DHT22;9815;52.334;20.890;2023-12-14T02:51:21;2.50;99.90
19359;DHT22;9815;52.334;20.890;2023-12-14T02:53:49;2.60;99.90
19359;DHT22;9815;52.334;20.890;2023-12-14T02:56:17;2.70;99.90
19359;DHT22;9815;52.334;20.890;2023-12-14T02:58:47;2.60;99.90
19359;DHT22;9815;52.334;20.890;2023-12-14T03:01:19;2.50;99.90
19359;DHT22;9815;52.334;20.890;2023-12-14T03:03:47;2.60;99.90
19359;DHT22;9815;52.334;20.890;2023-12-14T03:06:16;2.60;99.90
19359;DHT22;9815;52.334;20.890;2023-12-14T03:08:45;2.70;99.90
19359;DHT22;9815;52.334;20.890;2023-12-14T03:11:21;2.60;99.90
19359;DHT22;9815;52.334;20.890;2023-12-14T03:13:52;2.60;99.90
19359;DHT22;9815;52.334;20.890;2023-12-14T03:16:21;2.60;99.90
19359;DHT22;9815;52.334;20.890;2023-12-14T03:18:49;2.50;99.90
19359;DHT22;9815;52.334;20.890;2023-12-14T03:21:20;2.50;99.90
19359;DHT22;9815;52.334;20.890;2023-12-14T03:23:51;2.50;99.90
19359;DHT22;9815;52.334;20.890;2023-12-14T03:26:21;2.50;99.90
19359;DHT22;9815;52.334;20.890;2023-12-14T03:28:49;2.50;99.90
19359;DHT22;9815;52.334;20.890;2023-12-14T03:31:19;2.50;99.90
19359;DHT22;9815;52.334;20.890;2023-12-14T03:33:47;2.50;99.90
19359;DHT22;9815;52.334;20.890;2023-12-14T03:36:16;2.50;99.90
19359;DHT22;9815;52.334;20.890;2023-12-14T03:38:44;2.40;99.90
19359;DHT22;9815;52.334;20.890;2023-12-14T03:41:12;2.40;99.90
19359;DHT22;9815;52.334;20.890;2023-12-14T03:43:40;2.40;99.90
19359;DHT22;9815;52.334;20.890;2023-12-14T03:46:09;2.50;99.90
19359;DHT22;9815;52.334;20.890;2023-12-14T03:48:39;2.50;99.90
19359;DHT22;9815;52.334;20.890;2023-12-14T03:51:08;2.40;99.90
19359;DHT22;9815;52.334;20.890;2023-12-14T03:53:37;2.40;99.90
19359;DHT22;9815;52.334;20.890;2023-12-14T03:56:08;2.40;99.90
19359;DHT22;9815;52.334;20.890;2023-12-14T03:58:36;2.40;99.90
19359;DHT22;9815;52.334;20.890;2023-12-14T04:01:05;2.40;99.90
19359;DHT22;9815;52.334;20.890;2023-12-14T04:03:33;2.40;99.90
19359;DHT22;9815;52.334;20.890;2023-12-14T04:06:04;2.40;99.90
19359;DHT22;9815;52.334;20.890;2023-12-14T04:08:32;2.40;99.90
19359;DHT22;9815;52.334;20.890;2023-12-14T04:11:00;2.50;99.90
19359;DHT22;9815;52.334;20.890;2023-12-14T04:13:29;2.40;99.90
19359;DHT22;9815;52.334;20.890;2023-12-14T04:15:57;2.40;99.90
19359;DHT22;9815;52.334;20.890;2023-12-14T04:18:26;2.40;99.90
19359;DHT22;9815;52.334;20.890;2023-12-14T04:20:55;2.50;99.90
19359;DHT22;9815;52.334;20.890;2023-12-14T04:23:25;2.40;99.90
19359;DHT22;9815;52.334;20.890;2023-12-14T04:25:54;2.50;99.90
19359;DHT22;9815;52.334;20.890;2023-12-14T04:28:23;2.50;99.90
19359;DHT22;9815;52.334;20.890;2023-12-14T04:30:51;2.50;99.90
19359;DHT22;9815;52.334;20.890;2023-12-14T04:33:20;2.50;99.90
19359;DHT22;9815;52.334;20.890;2023-12-14T04:35:48;2.50;99.90
19359;DHT22;9815;52.334;20.890;2023-12-14T04:38:17;2.50;99.90
19359;DHT22;9815;52.334;20.890;2023-12-14T04:40:47;2.50;99.90
19359;DHT22;9815;52.334;20.890;2023-12-14T04:43:15;2.40;99.90
19359;DHT22;9815;52.334;20.890;2023-12-14T04:45:43;2.50;99.90
19359;DHT22;9815;52.334;20.890;2023-12-14T04:48:12;2.50;99.90
19359;DHT22;9815;52.334;20.890;2023-12-14T04:50:41;2.50;99.90
19359;DHT22;9815;52.334;20.890;2023-12-14T04:53:09;2.50;99.90
19359;DHT22;9815;52.334;20.890;2023-12-14T04:55:38;2.60;99.90
19359;DHT22;9815;52.334;20.890;2023-12-14T04:58:09;2.50;99.90
19359;DHT22;9815;52.334;20.890;2023-12-14T05:00:38;2.50;99.90
19359;DHT22;9815;52.334;20.890;2023-12-14T05:03:07;2.50;99.90
19359;DHT22;9815;52.334;20.890;2023-12-14T05:05:36;2.40;99.90
19359;DHT22;9815;52.334;20.890;2023-12-14T05:08:05;2.50;99.90
19359;DHT22;9815;52.334;20.890;2023-12-14T05:10:33;2.50;99.90
19359;DHT22;9815;52.334;20.890;2023-12-14T05:13:04;2.50;99.90
19359;DHT22;9815;52.334;20.890;2023-12-14T05:15:34;2.50;99.90
19359;DHT22;9815;52.334;20.890;2023-12-14T05:18:03;2.40;99.90
19359;DHT22;9815;52.334;20.890;2023-12-14T05:20:32;2.40;99.90
19359;DHT22;9815;52.334;20.890;2023-12-14T05:23:01;2.50;99.90
19359;DHT22;9815;52.334;20.890;2023-12-14T05:25:30;2.60;99.90
19359;DHT22;9815;52.334;20.890;2023-12-14T05:27:59;2.60;99.90
19359;DHT22;9815;52.334;20.890;2023-12-14T05:30:29;2.60;99.90
19359;DHT22;9815;52.334;20.890;2023-12-14T05:32:59;2.60;99.90
19359;DHT22;9815;52.334;20.890;2023-12-14T05:35:28;2.60;99.90
19359;DHT22;9815;52.334;20.890;2023-12-14T05:37:57;2.50;99.90
19359;DHT22;9815;52.334;20.890;2023-12-14T05:40:26;2.40;99.90
19359;DHT22;9815;52.334;20.890;2023-12-14T05:42:55;2.50;99.90
19359;DHT22;9815;52.334;20.890;2023-12-14T05:45:23;2.50;99.90
19359;DHT22;9815;52.334;20.890;2023-12-14T05:47:53;2.50;99.90
19359;DHT22;9815;52.334;20.890;2023-12-14T05:50:23;2.60;99.90
19359;DHT22;9815;52.334;20.890;2023-12-14T05:52:52;2.50;99.90
19359;DHT22;9815;52.334;20.890;2023-12-14T05:55:20;2.60;99.90
19359;DHT22;9815;52.334;20.890;2023-12-14T05:57:50;2.60;99.90
19359;DHT22;9815;52.334;20.890;2023-12-14T06:00:19;2.60;99.90
19359;DHT22;9815;52.334;20.890;2023-12-14T06:02:47;2.60;99.90
19359;DHT22;9815;52.334;20.890;2023-12-14T06:05:16;2.60;99.90
19359;DHT22;9815;52.334;20.890;2023-12-14T06:07:46;2.60;99.90
19359;DHT22;9815;52.334;20.890;2023-12-14T06:10:15;2.50;99.90
19359;DHT22;9815;52.334;20.890;2023-12-14T06:12:43;2.50;99.90
19359;DHT22;9815;52.334;20.890;2023-12-14T06:15:12;2.60;99.90
19359;DHT22;9815;52.334;20.890;2023-12-14T06:17:40;2.50;99.90
19359;DHT22;9815;52.334;20.890;2023-12-14T06:20:11;2.50;99.90
19359;DHT22;9815;52.334;20.890;2023-12-14T06:22:40;2.50;99.90
19359;DHT22;9815;52.334;20.890;2023-12-14T06:25:10;2.60;99.90
19359;DHT22;9815;52.334;20.890;2023-12-14T06:27:39;2.60;99.90
19359;DHT22;9815;52.334;20.890;2023-12-14T06:30:08;2.50;99.90
19359;DHT22;9815;52.334;20.890;2023-12-14T06:32:38;2.50;99.90
19359;DHT22;9815;52.334;20.890;2023-12-14T06:35:07;2.50;99.90
19359;DHT22;9815;52.334;20.890;2023-12-14T06:37:35;2.50;99.90
19359;DHT22;9815;52.334;20.890;2023-12-14T06:40:05;2.50;99.90
19359;DHT22;9815;52.334;20.890;2023-12-14T06:42:35;2.40;99.90
19359;DHT22;9815;52.334;20.890;2023-12-14T06:45:05;2.40;99.90
19359;DHT22;9815;52.334;20.890;2023-12-14T06:47:34;2.40;99.90
19359;DHT22;9815;52.334;20.890;2023-12-14T06:50:03;2.40;99.90
19359;DHT22;9815;52.334;20.890;2023-12-14T06:52:31;2.50;99.90
19359;DHT22;9815;52.334;20.890;2023-12-14T06:55:00;2.40;99.90
19359;DHT22;9815;52.334;20.890;2023-12-14T06:57:29;2.40;99.90
19359;DHT22;9815;52.334;20.890;2023-12-14T06:59:59;2.40;99.90
19359;DHT22;9815;52.334;20.890;2023-12-14T07:02:27;2.40;99.90
19359;DHT22;9815;52.334;20.890;2023-12-14T07:04:55;2.50;99.90
19359;DHT22;9815;52.334;20.890;2023-12-14T07:07:24;2.40;99.90
19359;DHT22;9815;52.334;20.890;2023-12-14T07:09:52;2.40;99.90
19359;DHT22;9815;52.334;20.890;2023-12-14T07:12:20;2.50;99.90
19359;DHT22;9815;52.334;20.890;2023-12-14T07:14:49;2.50;99.90
19359;DHT22;9815;52.334;20.890;2023-12-14T07:17:19;2.40;99.90
19359;DHT22;9815;52.334;20.890;2023-12-14T07:19:47;2.40;99.90
19359;DHT22;9815;52.334;20.890;2023-12-14T07:22:16;2.40;99.90
19359;DHT22;9815;52.334;20.890;2023-12-14T07:24:44;2.50;99.90
19359;DHT22;9815;52.334;20.890;2023-12-14T07:27:22;2.40;99.90
19359;DHT22;9815;52.334;20.890;2023-12-14T07:29:50;2.40;99.90
19359;DHT22;9815;52.334;20.890;2023-12-14T07:32:20;2.50;99.90
19359;DHT22;9815;52.334;20.890;2023-12-14T07:34:49;2.50;99.90
19359;DHT22;9815;52.334;20.890;2023-12-14T07:37:18;2.40;99.90
19359;DHT22;9815;52.334;20.890;2023-12-14T07:39:46;2.50;99.90
19359;DHT22;9815;52.334;20.890;2023-12-14T07:42:14;2.40;99.90
19359;DHT22;9815;52.334;20.890;2023-12-14T07:44:47;2.40;99.90
19359;DHT22;9815;52.334;20.890;2023-12-14T07:47:15;2.50;99.90
19359;DHT22;9815;52.334;20.890;2023-12-14T07:49:45;2.60;99.90
19359;DHT22;9815;52.334;20.890;2023-12-14T07:52:14;2.50;99.90
19359;DHT22;9815;52.334;20.890;2023-12-14T07:54:43;2.50;99.90
19359;DHT22;9815;52.334;20.890;2023-12-14T07:57:11;2.50;99.90
19359;DHT22;9815;52.334;20.890;2023-12-14T07:59:40;2.50;99.90
19359;DHT22;9815;52.334;20.890;2023-12-14T08:02:10;2.50;99.90
19359;DHT22;9815;52.334;20.890;2023-12-14T08:04:39;2.60;99.90
19359;DHT22;9815;52.334;20.890;2023-12-14T08:07:09;2.60;99.90
19359;DHT22;9815;52.334;20.890;2023-12-14T08:09:38;2.50;99.90
19359;DHT22;9815;52.334;20.890;2023-12-14T08:12:07;2.50;99.90
19359;DHT22;9815;52.334;20.890;2023-12-14T08:14:36;2.50;99.90
19359;DHT22;9815;52.334;20.890;2023-12-14T08:17:08;2.50;99.90
19359;DHT22;9815;52.334;20.890;2023-12-14T08:19:37;2.50;99.90
19359;DHT22;9815;52.334;20.890;2023-12-14T08:22:06;2.50;99.90
19359;DHT22;9815;52.334;20.890;2023-12-14T08:24:39;2.60;99.90
19359;DHT22;9815;52.334;20.890;2023-12-14T08:27:08;2.50;99.90
19359;DHT22;9815;52.334;20.890;2023-12-14T08:29:37;2.60;99.90
19359;DHT22;9815;52.334;20.890;2023-12-14T08:32:06;2.60;99.90
19359;DHT22;9815;52.334;20.890;2023-12-14T08:34:35;2.50;99.90
19359;DHT22;9815;52.334;20.890;2023-12-14T08:37:04;2.50;99.90
19359;DHT22;9815;52.334;20.890;2023-12-14T08:39:33;2.60;99.90
19359;DHT22;9815;52.334;20.890;2023-12-14T08:42:04;2.50;99.90
19359;DHT22;9815;52.334;20.890;2023-12-14T08:44:32;2.50;99.90
19359;DHT22;9815;52.334;20.890;2023-12-14T08:47:01;2.60;99.90
19359;DHT22;9815;52.334;20.890;2023-12-14T08:49:31;2.60;99.90
19359;DHT22;9815;52.334;20.890;2023-12-14T08:51:59;2.60;99.90
19359;DHT22;9815;52.334;20.890;2023-12-14T08:54:28;2.50;99.90
19359;DHT22;9815;52.334;20.890;2023-12-14T08:56:57;2.60;99.90
19359;DHT22;9815;52.334;20.890;2023-12-14T08:59:27;2.50;99.90
19359;DHT22;9815;52.334;20.890;2023-12-14T09:01:55;2.60;99.90
19359;DHT22;9815;52.334;20.890;2023-12-14T09:04:23;2.70;99.90
19359;DHT22;9815;52.334;20.890;2023-12-14T09:06:52;2.70;99.90
19359;DHT22;9815;52.334;20.890;2023-12-14T09:09:21;2.70;99.90
19359;DHT22;9815;52.334;20.890;2023-12-14T09:11:49;2.70;99.90
19359;DHT22;9815;52.334;20.890;2023-12-14T09:14:21;2.70;99.90
19359;DHT22;9815;52.334;20.890;2023-12-14T09:16:51;2.70;99.90
19359;DHT22;9815;52.334;20.890;2023-12-14T09:19:19;2.70;99.90
19359;DHT22;9815;52.334;20.890;2023-12-14T09:21:48;2.80;99.90
19359;DHT22;9815;52.334;20.890;2023-12-14T09:24:19;2.80;99.90
19359;DHT22;9815;52.334;20.890;2023-12-14T09:26:48;2.80;99.90
19359;DHT22;9815;52.334;20.890;2023-12-14T09:29:17;2.70;99.90
19359;DHT22;9815;52.334;20.890;2023-12-14T09:31:46;2.70;99.90
19359;DHT22;9815;52.334;20.890;2023-12-14T09:34:16;2.80;99.90
19359;DHT22;9815;52.334;20.890;2023-12-14T09:36:45;2.80;99.90
19359;DHT22;9815;52.334;20.890;2023-12-14T09:39:14;2.80;99.90
19359;DHT22;9815;52.334;20.890;2023-12-14T09:41:42;2.70;99.90
19359;DHT22;9815;52.334;20.890;2023-12-14T09:44:11;2.70;99.90
19359;DHT22;9815;52.334;20.890;2023-12-14T09:46:50;2.70;99.90
19359;DHT22;9815;52.334;20.890;2023-12-14T09:49:21;2.70;99.90
19359;DHT22;9815;52.334;20.890;2023-12-14T09:51:50;2.70;99.90
19359;DHT22;9815;52.334;20.890;2023-12-14T09:54:19;2.80;99.90
19359;DHT22;9815;52.334;20.890;2023-12-14T09:56:48;2.70;99.90
19359;DHT22;9815;52.334;20.890;2023-12-14T09:59:16;2.80;99.90
19359;DHT22;9815;52.334;20.890;2023-12-14T10:01:45;2.80;99.90
19359;DHT22;9815;52.334;20.890;2023-12-14T10:04:15;2.70;99.90
19359;DHT22;9815;52.334;20.890;2023-12-14T10:06:46;2.70;99.90
19359;DHT22;9815;52.334;20.890;2023-12-14T10:09:15;2.70;99.90
19359;DHT22;9815;52.334;20.890;2023-12-14T10:11:45;2.80;99.90
19359;DHT22;9815;52.334;20.890;2023-12-14T10:14:18;2.70;99.90
19359;DHT22;9815;52.334;20.890;2023-12-14T10:16:49;2.80;99.90
19359;DHT22;9815;52.334;20.890;2023-12-14T10:19:19;2.80;99.90
19359;DHT22;9815;52.334;20.890;2023-12-14T10:21:50;2.80;99.90
19359;DHT22;9815;52.334;20.890;2023-12-14T10:24:20;2.70;99.90
19359;DHT22;9815;52.334;20.890;2023-12-14T10:26:50;2.80;99.90
19359;DHT22;9815;52.334;20.890;2023-12-14T10:29:21;2.80;99.90
19359;DHT22;9815;52.334;20.890;2023-12-14T10:31:49;2.90;99.90
19359;DHT22;9815;52.334;20.890;2023-12-14T10:34:19;2.80;99.90
19359;DHT22;9815;52.334;20.890;2023-12-14T10:36:50;2.80;99.90
19359;DHT22;9815;52.334;20.890;2023-12-14T10:39:19;2.70;99.90
19359;DHT22;9815;52.334;20.890;2023-12-14T10:41:49;2.60;99.90
19359;DHT22;9815;52.334;20.890;2023-12-14T10:44:27;2.70;99.90
19359;DHT22;9815;52.334;20.890;2023-12-14T10:47:16;2.70;99.90
19359;DHT22;9815;52.334;20.890;2023-12-14T10:49:47;2.80;99.90
19359;DHT22;9815;52.334;20.890;2023-12-14T10:52:21;2.80;99.90
19359;DHT22;9815;52.334;20.890;2023-12-14T10:54:53;2.80;99.90
19359;DHT22;9815;52.334;20.890;2023-12-14T10:57:24;2.80;99.90
19359;DHT22;9815;52.334;20.890;2023-12-14T10:59:58;2.80;99.90
19359;DHT22;9815;52.334;20.890;2023-12-14T11:02:28;2.80;99.90
19359;DHT22;9815;52.334;20.890;2023-12-14T11:04:57;2.90;99.90
19359;DHT22;9815;52.334;20.890;2023-12-14T11:07:51;2.80;99.90
19359;DHT22;9815;52.334;20.890;2023-12-14T11:10:24;2.90;99.90
19359;DHT22;9815;52.334;20.890;2023-12-14T11:12:56;2.90;99.90
19359;DHT22;9815;52.334;20.890;2023-12-14T11:15:27;2.80;99.90
19359;DHT22;9815;52.334;20.890;2023-12-14T11:18:22;2.70;99.90
19359;DHT22;9815;52.334;20.890;2023-12-14T11:20:55;2.80;99.90
19359;DHT22;9815;52.334;20.890;2023-12-14T11:23:43;2.80;99.90
19359;DHT22;9815;52.334;20.890;2023-12-14T11:26:21;2.80;99.90
19359;DHT22;9815;52.334;20.890;2023-12-14T11:28:50;2.80;99.90
19359;DHT22;9815;52.334;20.890;2023-12-14T11:31:19;2.80;99.90
19359;DHT22;9815;52.334;20.890;2023-12-14T11:33:48;2.80;99.90
19359;DHT22;9815;52.334;20.890;2023-12-14T11:36:18;2.80;99.90
19359;DHT22;9815;52.334;20.890;2023-12-14T11:38:49;2.80;99.90
19359;DHT22;9815;52.334;20.890;2023-12-14T11:41:21;2.80;99.90
19359;DHT22;9815;52.334;20.890;2023-12-14T11:43:53;2.80;99.90
19359;DHT22;9815;52.334;20.890;2023-12-14T11:46:22;2.80;99.90
19359;DHT22;9815;52.334;20.890;2023-12-14T11:48:51;2.80;99.90
19359;DHT22;9815;52.334;20.890;2023-12-14T11:51:20;2.80;99.90
19359;DHT22;9815;52.334;20.890;2023-12-14T11:53:52;2.80;99.90
19359;DHT22;9815;52.334;20.890;2023-12-14T11:56:20;2.90;99.90
19359;DHT22;9815;52.334;20.890;2023-12-14T11:58:50;2.90;99.90
19359;DHT22;9815;52.334;20.890;2023-12-14T12:01:21;3.00;99.90
19359;DHT22;9815;52.334;20.890;2023-12-14T12:03:52;3.00;99.90
19359;DHT22;9815;52.334;20.890;2023-12-14T12:06:21;2.80;99.90
19359;DHT22;9815;52.334;20.890;2023-12-14T12:08:53;2.80;99.90
19359;DHT22;9815;52.334;20.890;2023-12-14T12:11:23;2.80;99.90
19359;DHT22;9815;52.334;20.890;2023-12-14T12:13:53;2.80;99.90
19359;DHT22;9815;52.334;20.890;2023-12-14T12:16:23;2.80;99.90
19359;DHT22;9815;52.334;20.890;2023-12-14T12:18:53;2.80;99.90
19359;DHT22;9815;52.334;20.890;2023-12-14T12:21:22;2.70;99.90
19359;DHT22;9815;52.334;20.890;2023-12-14T12:23:54;2.80;99.90
19359;DHT22;9815;52.334;20.890;2023-12-14T12:26:24;2.80;99.90
19359;DHT22;9815;52.334;20.890;2023-12-14T12:28:53;2.70;99.90
19359;DHT22;9815;52.334;20.890;2023-12-14T12:31:23;2.70;99.90
19359;DHT22;9815;52.334;20.890;2023-12-14T12:33:52;2.70;99.90
19359;DHT22;9815;52.334;20.890;2023-12-14T12:36:23;2.90;99.90
19359;DHT22;9815;52.334;20.890;2023-12-14T12:38:54;2.80;99.90
19359;DHT22;9815;52.334;20.890;2023-12-14T12:41:24;2.80;99.90
19359;DHT22;9815;52.334;20.890;2023-12-14T12:43:52;2.70;99.90
19359;DHT22;9815;52.334;20.890;2023-12-14T12:46:21;2.70;99.90
19359;DHT22;9815;52.334;20.890;2023-12-14T12:49:01;2.80;99.90
19359;DHT22;9815;52.334;20.890;2023-12-14T12:51:31;2.80;99.90
19359;DHT22;9815;52.334;20.890;2023-12-14T12:54:02;2.80;99.90
19359;DHT22;9815;52.334;20.890;2023-12-14T12:56:42;2.80;99.90
19359;DHT22;9815;52.334;20.890;2023-12-14T12:59:14;2.80;99.90
19359;DHT22;9815;52.334;20.890;2023-12-14T13:01:51;2.80;99.90
19359;DHT22;9815;52.334;20.890;2023-12-14T13:04:26;2.70;99.90
19359;DHT22;9815;52.334;20.890;2023-12-14T13:07:14;2.70;99.90
19359;DHT22;9815;52.334;20.890;2023-12-14T13:09:53;2.70;99.90
19359;DHT22;9815;52.334;20.890;2023-12-14T13:12:30;2.70;99.90
19359;DHT22;9815;52.334;20.890;2023-12-14T13:14:59;2.70;99.90
19359;DHT22;9815;52.334;20.890;2023-12-14T13:17:28;2.80;99.90
19359;DHT22;9815;52.334;20.890;2023-12-14T13:19:56;2.80;99.90
19359;DHT22;9815;52.334;20.890;2023-12-14T13:22:25;2.80;99.90
19359;DHT22;9815;52.334;20.890;2023-12-14T13:24:58;2.80;99.90
19359;DHT22;9815;52.334;20.890;2023-12-14T13:27:27;2.80;99.90
19359;DHT22;9815;52.334;20.890;2023-12-14T13:29:56;2.90;99.90
19359;DHT22;9815;52.334;20.890;2023-12-14T13:32:24;2.90;99.90
19359;DHT22;9815;52.334;20.890;2023-12-14T13:34:53;2.90;99.90
19359;DHT22;9815;52.334;20.890;2023-12-14T13:37:22;2.80;99.90
19359;DHT22;9815;52.334;20.890;2023-12-14T13:39:50;2.80;99.90
19359;DHT22;9815;52.334;20.890;2023-12-14T13:42:21;2.70;99.90
19359;DHT22;9815;52.334;20.890;2023-12-14T13:44:50;2.70;99.90
19359;DHT22;9815;52.334;20.890;2023-12-14T13:47:19;2.70;99.90
19359;DHT22;9815;52.334;20.890;2023-12-14T13:49:49;2.70;99.90
19359;DHT22;9815;52.334;20.890;2023-12-14T13:52:18;2.70;99.90
19359;DHT22;9815;52.334;20.890;2023-12-14T13:54:47;2.80;99.90
19359;DHT22;9815;52.334;20.890;2023-12-14T13:57:15;2.70;99.90
19359;DHT22;9815;52.334;20.890;2023-12-14T13:59:46;2.70;99.90
19359;DHT22;9815;52.334;20.890;2023-12-14T14:02:15;2.70;99.90
19359;DHT22;9815;52.334;20.890;2023-12-14T14:04:44;2.70;99.90
19359;DHT22;9815;52.334;20.890;2023-12-14T14:07:16;2.70;99.90
19359;DHT22;9815;52.334;20.890;2023-12-14T14:09:45;2.70;99.90
19359;DHT22;9815;52.334;20.890;2023-12-14T14:12:13;2.70;99.90
19359;DHT22;9815;52.334;20.890;2023-12-14T14:14:42;2.60;99.90
19359;DHT22;9815;52.334;20.890;2023-12-14T14:17:13;2.60;99.90
19359;DHT22;9815;52.334;20.890;2023-12-14T14:19:42;2.60;99.90
19359;DHT22;9815;52.334;20.890;2023-12-14T14:22:10;2.50;99.90
19359;DHT22;9815;52.334;20.890;2023-12-14T14:24:39;2.60;99.90
19359;DHT22;9815;52.334;20.890;2023-12-14T14:27:08;2.70;99.90
19359;DHT22;9815;52.334;20.890;2023-12-14T14:29:37;2.70;99.90
19359;DHT22;9815;52.334;20.890;2023-12-14T14:32:06;2.60;99.90
19359;DHT22;9815;52.334;20.890;2023-12-14T14:34:36;2.60;99.90
19359;DHT22;9815;52.334;20.890;2023-12-14T14:37:05;2.70;99.90
19359;DHT22;9815;52.334;20.890;2023-12-14T14:39:34;2.60;99.90
19359;DHT22;9815;52.334;20.890;2023-12-14T14:42:06;2.80;99.90
19359;DHT22;9815;52.334;20.890;2023-12-14T14:44:35;2.70;99.90
19359;DHT22;9815;52.334;20.890;2023-12-14T14:47:04;2.70;99.90
19359;DHT22;9815;52.334;20.890;2023-12-14T14:49:35;2.70;99.90
19359;DHT22;9815;52.334;20.890;2023-12-14T14:52:04;2.80;99.90
19359;DHT22;9815;52.334;20.890;2023-12-14T14:54:33;2.70;99.90
19359;DHT22;9815;52.334;20.890;2023-12-14T14:57:01;2.80;99.90
19359;DHT22;9815;52.334;20.890;2023-12-14T14:59:35;2.70;99.90
19359;DHT22;9815;52.334;20.890;2023-12-14T15:02:04;2.80;99.90
19359;DHT22;9815;52.334;20.890;2023-12-14T15:04:33;2.60;99.90
19359;DHT22;9815;52.334;20.890;2023-12-14T15:07:03;2.60;99.90
19359;DHT22;9815;52.334;20.890;2023-12-14T15:09:31;2.60;99.90
19359;DHT22;9815;52.334;20.890;2023-12-14T15:12:00;2.70;99.90
19359;DHT22;9815;52.334;20.890;2023-12-14T15:14:28;2.60;99.90
19359;DHT22;9815;52.334;20.890;2023-12-14T15:16:57;2.60;99.90
19359;DHT22;9815;52.334;20.890;2023-12-14T15:19:26;2.60;99.90
19359;DHT22;9815;52.334;20.890;2023-12-14T15:21:55;2.60;99.90
19359;DHT22;9815;52.334;20.890;2023-12-14T15:24:24;2.50;99.90
19359;DHT22;9815;52.334;20.890;2023-12-14T15:26:53;2.60;99.90
19359;DHT22;9815;52.334;20.890;2023-12-14T15:29:21;2.70;99.90
19359;DHT22;9815;52.334;20.890;2023-12-14T15:31:50;2.70;99.90
19359;DHT22;9815;52.334;20.890;2023-12-14T15:34:20;2.60;99.90
19359;DHT22;9815;52.334;20.890;2023-12-14T15:36:48;2.70;99.90
19359;DHT22;9815;52.334;20.890;2023-12-14T15:39:17;2.70;99.90
19359;DHT22;9815;52.334;20.890;2023-12-14T15:41:47;2.70;99.90
19359;DHT22;9815;52.334;20.890;2023-12-14T15:44:16;2.60;99.90
19359;DHT22;9815;52.334;20.890;2023-12-14T15:46:44;2.60;99.90
19359;DHT22;9815;52.334;20.890;2023-12-14T15:49:13;2.60;99.90
19359;DHT22;9815;52.334;20.890;2023-12-14T15:51:42;2.70;99.90
19359;DHT22;9815;52.334;20.890;2023-12-14T15:54:11;2.60;99.90
19359;DHT22;9815;52.334;20.890;2023-12-14T15:56:40;2.60;99.90
19359;DHT22;9815;52.334;20.890;2023-12-14T15:59:10;2.50;99.90